createdAt,value
2023-05-14T00:00:21.920Z,15.58
2023-05-14T00:02:48.633Z,15.61
2023-05-14T00:05:15.382Z,15.48
2023-05-14T00:07:41.763Z,15.47
2023-05-14T00:10:08.421Z,15.52
2023-05-14T00:12:34.800Z,15.48
2023-05-14T00:15:01.336Z,15.52
2023-05-14T00:17:27.774Z,15.57
2023-05-14T00:19:54.178Z,15.35
2023-05-14T00:22:20.563Z,15.42
2023-05-14T00:24:46.943Z,15.28
2023-05-14T00:27:13.366Z,15.35
2023-05-14T00:29:42.633Z,15.12
2023-05-14T00:32:09.040Z,15.22
2023-05-14T00:34:36.081Z,15.48
2023-05-14T00:37:02.456Z,15.35
2023-05-14T00:39:28.864Z,15.17
2023-05-14T00:41:55.264Z,14.90
2023-05-14T00:44:21.641Z,15.02
2023-05-14T00:46:48.383Z,15.15
2023-05-14T00:49:15.645Z,15.18
2023-05-14T00:51:42.891Z,15.17
2023-05-14T00:54:09.452Z,15.11
2023-05-14T00:56:36.077Z,15.10
2023-05-14T00:59:02.454Z,14.95
2023-05-14T01:01:28.964Z,14.98
2023-05-14T01:03:57.901Z,15.13
2023-05-14T01:06:46.147Z,14.94
2023-05-14T01:09:23.035Z,14.87
2023-05-14T01:11:59.797Z,14.84
2023-05-14T01:14:29.125Z,14.75
2023-05-14T01:16:58.719Z,14.78
2023-05-14T01:19:34.237Z,14.86
2023-05-14T01:22:00.611Z,14.62
2023-05-14T01:24:27.524Z,14.26
2023-05-14T01:27:00.414Z,14.47
2023-05-14T01:29:29.557Z,14.36
2023-05-14T01:31:57.866Z,14.56
2023-05-14T01:34:26.270Z,14.48
2023-05-14T01:36:53.539Z,14.46
2023-05-14T01:39:20.579Z,14.25
2023-05-14T01:41:48.502Z,14.25
2023-05-14T01:44:14.943Z,14.36
2023-05-14T01:46:41.367Z,14.31
2023-05-14T01:49:08.001Z,14.20
2023-05-14T01:51:34.423Z,14.11
2023-05-14T01:54:00.794Z,14.09
2023-05-14T01:56:27.211Z,14.14
2023-05-14T01:58:53.818Z,14.18
2023-05-14T02:01:20.367Z,14.11
2023-05-14T02:03:46.817Z,14.19
2023-05-14T02:06:13.302Z,14.12
2023-05-14T02:08:39.951Z,14.10
2023-05-14T02:11:06.308Z,14.14
2023-05-14T02:13:32.685Z,14.18
2023-05-14T02:15:59.116Z,14.32
2023-05-14T02:18:25.685Z,14.47
2023-05-14T02:20:52.108Z,14.61
2023-05-14T02:23:18.725Z,14.56
2023-05-14T02:25:45.910Z,14.53
2023-05-14T02:28:12.296Z,14.44
2023-05-14T02:30:38.710Z,14.58
2023-05-14T02:33:05.175Z,14.63
2023-05-14T02:35:31.601Z,14.79
2023-05-14T02:37:59.455Z,14.85
2023-05-14T02:40:26.091Z,14.50
2023-05-14T02:42:52.637Z,14.65
2023-05-14T02:45:19.005Z,14.71
2023-05-14T02:47:46.123Z,14.70
2023-05-14T02:50:12.540Z,14.78
2023-05-14T02:52:38.932Z,14.81
2023-05-14T02:55:06.193Z,14.86
2023-05-14T02:57:32.585Z,15.05
2023-05-14T02:59:59.024Z,14.80
2023-05-14T03:02:25.997Z,14.91
2023-05-14T03:04:52.639Z,15.15
2023-05-14T03:07:19.009Z,14.98
2023-05-14T03:09:45.471Z,15.10
2023-05-14T03:12:12.819Z,14.81
2023-05-14T03:14:39.202Z,15.09
2023-05-14T03:17:05.912Z,14.80
2023-05-14T03:19:32.343Z,15.07
2023-05-14T03:21:58.715Z,15.01
2023-05-14T03:24:25.405Z,14.88
2023-05-14T03:26:51.778Z,15.01
2023-05-14T03:29:18.234Z,15.03
2023-05-14T03:31:45.145Z,14.82
2023-05-14T03:34:11.587Z,14.98
2023-05-14T03:36:39.657Z,15.06
2023-05-14T03:39:09.466Z,15.31
2023-05-14T03:41:36.311Z,15.32
2023-05-14T03:44:02.704Z,15.18
2023-05-14T03:46:29.077Z,15.33
2023-05-14T03:48:55.502Z,15.52
2023-05-14T03:51:21.908Z,15.46
2023-05-14T03:53:48.266Z,15.27
2023-05-14T03:56:14.624Z,15.26
2023-05-14T03:58:41.002Z,15.57
2023-05-14T04:01:07.390Z,15.44
2023-05-14T04:03:33.888Z,15.24
2023-05-14T04:06:00.411Z,15.49
2023-05-14T04:08:26.775Z,15.30
2023-05-14T04:10:53.132Z,15.04
2023-05-14T04:13:19.513Z,15.31
2023-05-14T04:15:45.885Z,15.04
2023-05-14T04:18:12.351Z,15.20
2023-05-14T04:20:38.775Z,15.05
2023-05-14T04:23:05.145Z,15.36
2023-05-14T04:25:31.524Z,15.05
2023-05-14T04:27:58.625Z,14.89
2023-05-14T04:30:25.224Z,14.89
2023-05-14T04:32:51.764Z,15.21
2023-05-14T04:35:18.256Z,15.22
2023-05-14T04:37:44.691Z,14.95
2023-05-14T04:40:11.303Z,14.99
2023-05-14T04:42:38.683Z,15.17
2023-05-14T04:45:06.708Z,15.02
2023-05-14T04:47:33.134Z,15.12
2023-05-14T04:49:59.584Z,15.03
2023-05-14T04:52:26.151Z,15.13
2023-05-14T04:54:52.625Z,15.43
2023-05-14T04:57:19.015Z,15.26
2023-05-14T04:59:45.501Z,15.22
2023-05-14T05:02:11.875Z,15.39
2023-05-14T05:04:38.799Z,15.28
2023-05-14T05:07:05.745Z,15.50
2023-05-14T05:09:32.155Z,15.42
2023-05-14T05:11:58.703Z,15.30
2023-05-14T05:14:25.055Z,15.47
2023-05-14T05:16:51.478Z,15.53
2023-05-14T05:19:17.966Z,15.56
2023-05-14T05:21:44.590Z,15.56
2023-05-14T05:24:11.064Z,15.50
2023-05-14T05:26:37.515Z,15.79
2023-05-14T05:29:04.519Z,15.73
2023-05-14T05:31:31.833Z,15.76
2023-05-14T05:34:01.360Z,15.69
2023-05-14T05:36:28.642Z,15.64
2023-05-14T05:38:55.413Z,16.06
2023-05-14T05:41:22.455Z,16.06
2023-05-14T05:43:48.813Z,16.05
2023-05-14T05:46:15.220Z,16.09
2023-05-14T05:48:41.592Z,16.09
2023-05-14T05:51:08.121Z,16.24
2023-05-14T05:53:34.485Z,16.07
2023-05-14T05:56:00.945Z,16.09
2023-05-14T05:58:27.429Z,16.08
2023-05-14T06:00:53.823Z,16.04
2023-05-14T06:03:20.383Z,16.11
2023-05-14T06:05:47.036Z,16.11
2023-05-14T06:08:13.908Z,15.98
2023-05-14T06:10:40.289Z,16.13
2023-05-14T06:13:06.963Z,16.20
2023-05-14T06:15:33.351Z,16.27
2023-05-14T06:17:59.765Z,16.62
2023-05-14T06:20:26.505Z,16.47
2023-05-14T06:22:53.078Z,16.70
2023-05-14T06:25:19.609Z,16.64
2023-05-14T06:27:45.999Z,16.54
2023-05-14T06:30:12.907Z,16.73
2023-05-14T06:32:39.363Z,16.76
2023-05-14T06:35:06.278Z,16.66
2023-05-14T06:37:32.633Z,16.83
2023-05-14T06:40:00.992Z,17.11
2023-05-14T06:42:27.435Z,17.56
2023-05-14T06:44:54.518Z,17.50
2023-05-14T06:47:20.916Z,17.73
2023-05-14T06:49:47.287Z,17.64
2023-05-14T06:52:13.660Z,17.84
2023-05-14T06:54:40.022Z,18.20
2023-05-14T06:57:06.402Z,18.04
2023-05-14T06:59:33.225Z,18.21
2023-05-14T07:01:59.768Z,18.31
2023-05-14T07:04:26.245Z,18.54
2023-05-14T07:06:52.689Z,18.55
2023-05-14T07:09:19.045Z,18.95
2023-05-14T07:11:45.589Z,18.97
2023-05-14T07:14:11.983Z,18.81
2023-05-14T07:16:38.402Z,18.70
2023-05-14T07:19:04.858Z,18.87
2023-05-14T07:21:32.410Z,19.14
2023-05-14T07:23:58.809Z,19.35
2023-05-14T07:26:25.224Z,19.55
2023-05-14T07:28:51.608Z,19.38
2023-05-14T07:31:18.048Z,19.01
2023-05-14T07:33:44.642Z,19.12
2023-05-14T07:36:11.042Z,19.24
2023-05-14T07:38:37.417Z,18.87
2023-05-14T07:41:04.076Z,19.37
2023-05-14T07:43:31.044Z,19.42
2023-05-14T07:45:57.413Z,19.46
2023-05-14T07:48:23.854Z,19.42
2023-05-14T07:50:51.522Z,19.63
2023-05-14T07:53:17.897Z,19.71
2023-05-14T07:55:45.313Z,20.24
2023-05-14T07:58:11.683Z,19.86
2023-05-14T08:00:38.035Z,20.09
2023-05-14T08:03:05.160Z,20.31
2023-05-14T08:05:32.916Z,20.17
2023-05-14T08:07:59.319Z,20.14
2023-05-14T08:10:26.026Z,20.01
2023-05-14T08:12:52.715Z,20.65
2023-05-14T08:15:19.128Z,20.62
2023-05-14T08:17:45.627Z,21.03
2023-05-14T08:20:12.217Z,20.45
2023-05-14T08:22:38.623Z,20.59
2023-05-14T08:25:06.410Z,21.15
2023-05-14T08:27:32.816Z,21.01
2023-05-14T08:29:59.181Z,21.20
2023-05-14T08:32:25.630Z,21.51
2023-05-14T08:34:52.335Z,21.04
2023-05-14T08:37:18.838Z,21.09
2023-05-14T08:39:45.189Z,20.98
2023-05-14T08:42:12.850Z,21.16
2023-05-14T08:44:50.008Z,21.28
2023-05-14T08:47:21.169Z,21.48
2023-05-14T08:49:54.435Z,21.39
2023-05-14T08:52:22.645Z,21.10
2023-05-14T08:54:50.785Z,21.16
2023-05-14T08:57:18.704Z,21.14
2023-05-14T08:59:45.169Z,21.24
2023-05-14T09:02:15.148Z,21.43
2023-05-14T09:04:42.471Z,21.51
2023-05-14T09:07:09.075Z,21.98
2023-05-14T09:09:37.199Z,22.28
2023-05-14T09:12:03.804Z,22.50
2023-05-14T09:14:30.182Z,22.51
2023-05-14T09:16:56.995Z,22.68
2023-05-14T09:19:23.929Z,22.77
2023-05-14T09:21:50.522Z,22.99
2023-05-14T09:24:25.022Z,22.71
2023-05-14T09:26:53.383Z,22.75
2023-05-14T09:29:19.915Z,22.24
2023-05-14T09:31:46.552Z,22.39
2023-05-14T09:34:35.116Z,21.94
2023-05-14T09:37:03.883Z,22.07
2023-05-14T09:39:31.117Z,22.00
2023-05-14T09:41:57.777Z,21.87
2023-05-14T09:44:25.530Z,22.00
2023-05-14T09:46:53.378Z,21.24
2023-05-14T09:49:20.400Z,21.78
2023-05-14T09:51:48.179Z,21.90
2023-05-14T09:54:14.653Z,21.65
2023-05-14T09:56:42.096Z,21.89
2023-05-14T09:59:08.476Z,21.28
2023-05-14T10:01:35.966Z,21.74
2023-05-14T10:04:06.275Z,21.71
2023-05-14T10:06:37.052Z,21.90
2023-05-14T10:09:05.805Z,21.68
2023-05-14T10:11:35.514Z,21.48
2023-05-14T10:14:17.948Z,21.37
2023-05-14T10:16:50.471Z,21.68
2023-05-14T10:19:19.427Z,21.48
2023-05-14T10:21:49.854Z,21.43
2023-05-14T10:24:16.922Z,21.22
2023-05-14T10:26:43.380Z,21.03
2023-05-14T10:29:10.437Z,21.42
2023-05-14T10:31:54.182Z,21.09
2023-05-14T10:34:46.104Z,20.62
2023-05-14T10:37:18.074Z,21.00
2023-05-14T10:39:50.647Z,20.84
2023-05-14T10:42:28.890Z,21.01
2023-05-14T10:44:58.746Z,21.27
2023-05-14T10:47:29.230Z,21.41
2023-05-14T10:49:57.914Z,21.59
2023-05-14T10:52:24.987Z,21.66
2023-05-14T10:54:55.842Z,21.61
2023-05-14T10:57:24.086Z,21.03
2023-05-14T10:59:56.098Z,21.13
2023-05-14T11:02:31.126Z,21.27
2023-05-14T11:05:00.244Z,21.42
2023-05-14T11:07:35.435Z,21.45
2023-05-14T11:10:12.373Z,21.43
2023-05-14T11:12:41.338Z,21.40
2023-05-14T11:15:19.420Z,21.38
2023-05-14T11:17:47.354Z,21.17
2023-05-14T11:20:14.682Z,21.22
2023-05-14T11:22:42.528Z,20.76
2023-05-14T11:25:09.773Z,20.95
2023-05-14T11:27:38.673Z,20.88
2023-05-14T11:30:06.569Z,20.92
2023-05-14T11:32:33.400Z,20.92
2023-05-14T11:34:59.756Z,20.75
2023-05-14T11:37:26.160Z,20.61
2023-05-14T11:39:54.505Z,20.71
2023-05-14T11:42:22.396Z,21.10
2023-05-14T11:44:51.610Z,21.21
2023-05-14T11:47:19.897Z,21.37
2023-05-14T11:49:46.797Z,21.16
2023-05-14T11:52:14.803Z,21.61
2023-05-14T11:54:42.944Z,21.78
2023-05-14T11:57:17.729Z,21.29
2023-05-14T11:59:44.413Z,21.56
2023-05-14T12:02:16.070Z,21.42
2023-05-14T12:04:43.578Z,21.65
2023-05-14T12:07:15.619Z,21.61
2023-05-14T12:09:49.217Z,21.65
2023-05-14T12:12:18.932Z,21.49
2023-05-14T12:14:45.509Z,21.43
2023-05-14T12:17:20.089Z,21.25
2023-05-14T12:19:54.220Z,21.40
2023-05-14T12:22:22.388Z,21.79
2023-05-14T12:24:59.301Z,22.42
2023-05-14T12:27:27.824Z,22.20
2023-05-14T12:30:19.241Z,22.62
2023-05-14T12:32:47.127Z,22.84
2023-05-14T12:35:13.573Z,23.19
2023-05-14T12:37:40.074Z,23.57
2023-05-14T12:40:09.365Z,23.90
2023-05-14T12:42:36.464Z,23.22
2023-05-14T12:45:05.609Z,23.66
2023-05-14T12:47:32.349Z,23.44
2023-05-14T12:49:58.913Z,23.26
2023-05-14T12:52:36.889Z,23.59
2023-05-14T12:55:05.209Z,23.13
2023-05-14T12:57:31.673Z,23.15
2023-05-14T12:59:58.128Z,23.08
2023-05-14T13:02:24.469Z,22.92
2023-05-14T13:04:50.846Z,22.78
2023-05-14T13:07:17.251Z,22.82
2023-05-14T13:09:43.609Z,23.22
2023-05-14T13:12:10.051Z,22.92
2023-05-14T13:14:36.488Z,23.81
2023-05-14T13:17:04.202Z,24.14
2023-05-14T13:19:30.734Z,23.68
2023-05-14T13:21:57.094Z,23.28
2023-05-14T13:24:24.963Z,23.36
2023-05-14T13:26:51.357Z,23.13
2023-05-14T13:29:17.722Z,22.60
2023-05-14T13:31:44.257Z,22.15
2023-05-14T13:34:10.702Z,22.08
2023-05-14T13:36:39.606Z,22.13
2023-05-14T13:39:06.852Z,22.05
2023-05-14T13:41:37.798Z,22.29
2023-05-14T13:44:04.993Z,22.07
2023-05-14T13:46:31.472Z,22.14
2023-05-14T13:48:57.867Z,22.01
2023-05-14T13:51:24.256Z,22.09
2023-05-14T13:53:50.617Z,22.16
2023-05-14T13:56:16.992Z,22.14
2023-05-14T13:58:43.357Z,22.16
2023-05-14T14:01:09.818Z,22.38
2023-05-14T14:03:36.215Z,21.90
2023-05-14T14:06:02.657Z,22.07
2023-05-14T14:08:29.056Z,22.29
2023-05-14T14:10:55.709Z,21.99
2023-05-14T14:13:22.809Z,22.01
2023-05-14T14:15:49.961Z,21.69
2023-05-14T14:18:16.444Z,22.04
2023-05-14T14:20:42.815Z,22.24
2023-05-14T14:23:09.175Z,22.42
2023-05-14T14:25:35.559Z,22.96
2023-05-14T14:28:06.042Z,22.67
2023-05-14T14:30:32.484Z,22.67
2023-05-14T14:33:01.153Z,23.01
2023-05-14T14:35:27.698Z,23.01
2023-05-14T14:37:55.604Z,22.83
2023-05-14T14:40:23.650Z,22.27
2023-05-14T14:42:50.190Z,23.07
2023-05-14T14:45:16.544Z,22.82
2023-05-14T14:47:45.997Z,22.75
2023-05-14T14:50:13.033Z,23.01
2023-05-14T14:52:40.768Z,22.68
2023-05-14T14:55:07.398Z,22.53
2023-05-14T14:57:33.767Z,22.68
2023-05-14T15:00:02.103Z,22.80
2023-05-14T15:02:29.100Z,22.93
2023-05-14T15:04:55.759Z,22.33
2023-05-14T15:07:22.662Z,22.24
2023-05-14T15:09:49.029Z,22.17
2023-05-14T15:12:17.032Z,22.27
2023-05-14T15:14:43.490Z,22.32
2023-05-14T15:17:10.421Z,22.33
2023-05-14T15:19:37.011Z,22.38
2023-05-14T15:22:03.918Z,22.36
2023-05-14T15:24:30.392Z,22.42
2023-05-14T15:26:56.763Z,22.34
2023-05-14T15:29:23.152Z,22.42
2023-05-14T15:31:49.571Z,22.03
2023-05-14T15:34:16.243Z,22.01
2023-05-14T15:36:42.616Z,22.00
2023-05-14T15:39:10.374Z,22.07
2023-05-14T15:41:36.851Z,21.98
2023-05-14T15:44:03.263Z,22.03
2023-05-14T15:46:30.482Z,22.15
2023-05-14T15:48:57.890Z,22.22
2023-05-14T15:51:24.269Z,22.03
2023-05-14T15:53:53.291Z,22.10
2023-05-14T15:56:20.737Z,21.81
2023-05-14T15:58:48.192Z,22.24
2023-05-14T16:01:14.613Z,22.31
2023-05-14T16:03:41.160Z,21.94
2023-05-14T16:06:07.627Z,22.06
2023-05-14T16:08:33.982Z,21.99
2023-05-14T16:11:00.341Z,22.17
2023-05-14T16:13:26.795Z,22.14
2023-05-14T16:15:53.277Z,22.17
2023-05-14T16:18:19.860Z,22.18
2023-05-14T16:20:46.232Z,22.50
2023-05-14T16:23:12.596Z,22.54
2023-05-14T16:25:38.951Z,22.60
2023-05-14T16:28:05.409Z,24.98
2023-05-14T16:30:31.956Z,25.30
2023-05-14T16:32:58.372Z,23.58
2023-05-14T16:35:24.778Z,22.79
2023-05-14T16:37:51.186Z,23.11
2023-05-14T16:40:19.571Z,23.18
2023-05-14T16:42:48.476Z,23.13
2023-05-14T16:45:15.704Z,23.31
2023-05-14T16:47:42.078Z,24.45
2023-05-14T16:50:08.817Z,23.57
2023-05-14T16:52:35.242Z,23.72
2023-05-14T16:55:01.613Z,25.37
2023-05-14T16:57:28.128Z,27.77
2023-05-14T16:59:54.543Z,26.78
2023-05-14T17:02:20.905Z,27.77
2023-05-14T17:04:47.318Z,28.62
2023-05-14T17:07:13.764Z,29.20
2023-05-14T17:09:40.251Z,27.18
2023-05-14T17:12:07.014Z,25.38
2023-05-14T17:14:33.368Z,23.95
2023-05-14T17:16:59.737Z,24.18
2023-05-14T17:19:26.116Z,23.61
2023-05-14T17:21:52.491Z,25.29
2023-05-14T17:24:18.874Z,25.07
2023-05-14T17:26:45.413Z,24.47
2023-05-14T17:29:11.818Z,25.12
2023-05-14T17:31:38.253Z,25.05
2023-05-14T17:34:04.646Z,24.15
2023-05-14T17:36:32.252Z,22.88
2023-05-14T17:38:58.633Z,24.16
2023-05-14T17:41:25.017Z,24.52
2023-05-14T17:43:52.485Z,24.57
2023-05-14T17:46:19.060Z,24.90
2023-05-14T17:48:45.547Z,24.77
2023-05-14T17:51:11.916Z,23.90
2023-05-14T17:53:38.286Z,23.49
2023-05-14T17:56:05.168Z,22.00
2023-05-14T17:58:31.528Z,22.20
2023-05-14T18:00:57.914Z,22.51
2023-05-14T18:03:24.435Z,22.01
2023-05-14T18:05:51.125Z,21.31
2023-05-14T18:08:17.548Z,21.47
2023-05-14T18:10:43.977Z,21.22
2023-05-14T18:13:10.412Z,20.96
2023-05-14T18:15:36.970Z,20.91
2023-05-14T18:18:03.474Z,21.08
2023-05-14T18:20:29.938Z,20.81
2023-05-14T18:22:56.320Z,20.79
2023-05-14T18:25:22.979Z,20.79
2023-05-14T18:27:49.678Z,20.50
2023-05-14T18:30:16.158Z,20.57
2023-05-14T18:32:44.489Z,20.50
2023-05-14T18:35:12.407Z,20.11
2023-05-14T18:37:39.142Z,20.23
2023-05-14T18:40:06.982Z,20.16
2023-05-14T18:42:33.915Z,20.00
2023-05-14T18:45:00.445Z,19.97
2023-05-14T18:47:26.960Z,19.77
2023-05-14T18:49:55.738Z,19.75
2023-05-14T18:52:22.822Z,19.35
2023-05-14T18:54:50.373Z,19.54
2023-05-14T18:57:17.027Z,19.66
2023-05-14T18:59:43.419Z,19.81
2023-05-14T19:02:10.108Z,19.57
2023-05-14T19:04:50.645Z,19.71
2023-05-14T19:07:18.588Z,19.62
2023-05-14T19:09:44.976Z,19.91
2023-05-14T19:12:11.352Z,19.67
2023-05-14T19:14:37.782Z,19.81
2023-05-14T19:17:04.762Z,19.54
2023-05-14T19:19:31.266Z,19.55
2023-05-14T19:21:57.626Z,19.34
2023-05-14T19:24:24.039Z,19.23
2023-05-14T19:26:50.474Z,19.17
2023-05-14T19:29:16.833Z,19.30
2023-05-14T19:31:43.268Z,19.08
2023-05-14T19:34:10.061Z,19.03
2023-05-14T19:36:36.437Z,18.89
2023-05-14T19:39:03.087Z,18.98
2023-05-14T19:41:29.493Z,18.88
2023-05-14T19:43:55.882Z,18.95
2023-05-14T19:46:22.306Z,18.68
2023-05-14T19:48:48.716Z,18.53
2023-05-14T19:51:15.159Z,18.46
2023-05-14T19:53:41.558Z,18.29
2023-05-14T19:56:08.017Z,18.29
2023-05-14T19:58:34.384Z,18.15
2023-05-14T20:01:00.922Z,18.30
2023-05-14T20:03:27.463Z,18.50
2023-05-14T20:05:55.180Z,18.49
2023-05-14T20:08:21.674Z,18.15
2023-05-14T20:10:48.373Z,18.23
2023-05-14T20:13:14.999Z,18.18
2023-05-14T20:15:41.445Z,18.28
2023-05-14T20:18:08.026Z,18.13
2023-05-14T20:20:34.513Z,18.09
2023-05-14T20:23:00.894Z,17.92
2023-05-14T20:25:28.485Z,17.83
2023-05-14T20:27:55.276Z,17.86
2023-05-14T20:30:21.685Z,17.72
2023-05-14T20:32:48.141Z,17.65
2023-05-14T20:35:14.555Z,17.60
2023-05-14T20:37:41.274Z,17.72
2023-05-14T20:40:10.525Z,17.78
2023-05-14T20:42:37.047Z,17.49
2023-05-14T20:45:03.829Z,17.33
2023-05-14T20:47:31.950Z,17.47
2023-05-14T20:49:58.631Z,17.24
2023-05-14T20:52:25.031Z,17.17
2023-05-14T20:54:51.441Z,17.14
2023-05-14T20:57:18.922Z,17.03
2023-05-14T20:59:45.959Z,17.14
2023-05-14T21:02:12.712Z,17.27
2023-05-14T21:04:39.246Z,17.24
2023-05-14T21:07:06.197Z,17.02
2023-05-14T21:09:32.869Z,17.02
2023-05-14T21:11:59.288Z,17.21
2023-05-14T21:14:25.776Z,17.26
2023-05-14T21:16:52.310Z,17.24
2023-05-14T21:19:18.837Z,17.20
2023-05-14T21:21:45.615Z,17.19
2023-05-14T21:24:12.004Z,17.16
2023-05-14T21:26:40.270Z,17.00
2023-05-14T21:29:06.875Z,17.06
2023-05-14T21:31:33.318Z,17.07
2023-05-14T21:33:59.715Z,16.77
2023-05-14T21:36:26.085Z,16.87
2023-05-14T21:38:55.534Z,16.98
2023-05-14T21:41:22.058Z,16.89
2023-05-14T21:43:48.505Z,16.79
2023-05-14T21:46:14.962Z,16.81
2023-05-14T21:48:43.385Z,16.80
2023-05-14T21:51:10.110Z,16.78
2023-05-14T21:53:36.502Z,16.38
2023-05-14T21:56:02.916Z,16.06
2023-05-14T21:58:29.273Z,16.17
2023-05-14T22:00:55.664Z,16.34
2023-05-14T22:03:23.158Z,16.12
2023-05-14T22:05:49.627Z,16.06
2023-05-14T22:08:17.568Z,15.91
2023-05-14T22:10:44.410Z,15.95
2023-05-14T22:13:10.997Z,16.02
2023-05-14T22:15:37.873Z,16.02
2023-05-14T22:18:04.460Z,16.07
2023-05-14T22:20:30.897Z,16.06
2023-05-14T22:22:57.287Z,16.08
2023-05-14T22:25:23.955Z,15.90
2023-05-14T22:27:50.492Z,15.71
2023-05-14T22:30:16.983Z,15.76
2023-05-14T22:32:43.371Z,15.70
2023-05-14T22:35:09.830Z,15.64
2023-05-14T22:37:36.180Z,15.90
2023-05-14T22:40:05.070Z,15.86
2023-05-14T22:42:31.482Z,15.82
2023-05-14T22:44:57.869Z,15.47
2023-05-14T22:47:25.196Z,15.47
2023-05-14T22:49:52.400Z,15.92
2023-05-14T22:52:18.901Z,15.47
2023-05-14T22:54:46.587Z,15.51
2023-05-14T22:57:12.993Z,15.36
2023-05-14T22:59:39.505Z,15.43
2023-05-14T23:02:06.639Z,15.81
2023-05-14T23:04:33.234Z,15.43
2023-05-14T23:06:59.655Z,15.25
2023-05-14T23:09:26.017Z,15.20
2023-05-14T23:11:52.406Z,15.26
2023-05-14T23:14:18.803Z,15.31
2023-05-14T23:16:45.226Z,15.61
2023-05-14T23:19:11.820Z,15.56
2023-05-14T23:21:38.340Z,15.28
2023-05-14T23:24:04.860Z,15.19
2023-05-14T23:26:31.429Z,15.32
2023-05-14T23:28:57.781Z,15.21
2023-05-14T23:31:24.245Z,15.41
2023-05-14T23:33:50.705Z,15.18
2023-05-14T23:36:17.101Z,15.13
2023-05-14T23:38:43.594Z,15.04
2023-05-14T23:41:10.086Z,15.26
2023-05-14T23:43:36.637Z,14.97
2023-05-14T23:46:03.079Z,15.07
2023-05-14T23:48:29.844Z,14.93
2023-05-14T23:50:56.207Z,15.32
2023-05-14T23:53:23.273Z,15.32
2023-05-14T23:55:49.749Z,15.36
2023-05-14T23:58:16.183Z,15.38
